createdAt,value
2019-04-25T00:00:48.860Z,58.05
2019-04-25T00:01:48.864Z,58.05
2019-04-25T00:02:48.847Z,58.46
2019-04-25T00:03:48.829Z,58.97
2019-04-25T00:04:48.826Z,58.56
2019-04-25T00:05:48.811Z,58.76
2019-04-25T00:06:48.800Z,58.56
2019-04-25T00:07:48.783Z,58.56
2019-04-25T00:08:48.774Z,58.67
2019-04-25T00:09:48.772Z,58.59
2019-04-25T00:10:48.764Z,58.56
2019-04-25T00:11:48.986Z,58.46
2019-04-25T00:12:48.727Z,58.80
2019-04-25T00:13:48.720Z,58.49
2019-04-25T00:14:48.723Z,58.89
2019-04-25T00:15:48.696Z,59.00
2019-04-25T00:16:49.262Z,60.73
2019-04-25T00:17:48.679Z,60.66
2019-04-25T00:18:48.667Z,60.76
2019-04-25T00:19:48.666Z,60.45
2019-04-25T00:20:48.794Z,60.22
2019-04-25T00:21:48.847Z,59.94
2019-04-25T00:22:49.273Z,60.14
2019-04-25T00:23:49.305Z,60.38
2019-04-25T00:24:49.473Z,60.76
2019-04-25T00:25:49.204Z,60.86
2019-04-25T00:26:48.606Z,61.16
2019-04-25T00:27:48.628Z,60.69
2019-04-25T00:28:48.785Z,60.58
2019-04-25T00:29:48.810Z,60.78
2019-04-25T00:30:48.531Z,60.89
2019-04-25T00:31:49.271Z,61.30
2019-04-25T00:32:49.287Z,60.69
2019-04-25T00:33:49.495Z,60.61
2019-04-25T00:34:48.493Z,61.83
2019-04-25T00:35:48.480Z,61.94
2019-04-25T00:36:48.673Z,61.73
2019-04-25T00:37:48.452Z,61.63
2019-04-25T00:38:49.252Z,61.53
2019-04-25T00:39:49.100Z,61.53
2019-04-25T00:40:48.423Z,61.63
2019-04-25T00:41:49.215Z,61.83
2019-04-25T00:42:48.397Z,62.37
2019-04-25T00:43:48.390Z,62.14
2019-04-25T00:44:48.380Z,62.68
2019-04-25T00:45:48.374Z,63.19
2019-04-25T00:46:50.178Z,63.70
2019-04-25T00:47:48.346Z,63.40
2019-04-25T00:48:48.331Z,63.60
2019-04-25T00:49:48.332Z,64.62
2019-04-25T00:50:48.320Z,64.52
2019-04-25T00:51:48.349Z,64.01
2019-04-25T00:52:48.351Z,63.90
2019-04-25T00:53:48.280Z,63.70
2019-04-25T00:54:48.366Z,63.60
2019-04-25T00:55:48.635Z,63.53
2019-04-25T00:56:49.344Z,63.49
2019-04-25T00:57:48.770Z,63.93
2019-04-25T00:58:48.877Z,64.42
2019-04-25T00:59:48.947Z,64.04
2019-04-25T01:00:49.025Z,63.73
2019-04-25T01:01:49.265Z,64.55
2019-04-25T01:02:48.178Z,65.47
2019-04-25T01:03:48.204Z,64.86
2019-04-25T01:04:48.162Z,65.09
2019-04-25T01:05:48.158Z,65.16
2019-04-25T01:06:48.134Z,65.60
2019-04-25T01:07:48.121Z,64.78
2019-04-25T01:08:48.111Z,64.78
2019-04-25T01:09:48.106Z,65.19
2019-04-25T01:10:48.128Z,64.99
2019-04-25T01:11:48.078Z,65.19
2019-04-25T01:12:48.206Z,65.30
2019-04-25T01:13:48.259Z,65.30
2019-04-25T01:14:48.391Z,65.09
2019-04-25T01:15:48.499Z,65.02
2019-04-25T01:16:48.622Z,65.22
2019-04-25T01:17:48.863Z,64.99
2019-04-25T01:18:48.758Z,65.60
2019-04-25T01:19:48.914Z,65.70
2019-04-25T01:20:47.993Z,66.21
2019-04-25T01:21:47.973Z,66.75
2019-04-25T01:22:47.971Z,66.45
2019-04-25T01:23:47.954Z,65.63
2019-04-25T01:24:47.983Z,65.12
2019-04-25T01:25:47.940Z,65.94
2019-04-25T01:26:47.927Z,65.80
2019-04-25T01:27:47.918Z,65.94
2019-04-25T01:28:47.895Z,65.94
2019-04-25T01:29:47.940Z,66.14
2019-04-25T01:30:47.930Z,66.35
2019-04-25T01:31:48.005Z,66.14
2019-04-25T01:32:48.317Z,66.66
2019-04-25T01:33:48.309Z,66.86
2019-04-25T01:34:48.541Z,66.35
2019-04-25T01:35:48.467Z,66.45
2019-04-25T01:36:48.643Z,66.86
2019-04-25T01:37:47.819Z,66.25
2019-04-25T01:38:49.054Z,67.16
2019-04-25T01:39:47.812Z,66.55
2019-04-25T01:40:48.508Z,66.55
2019-04-25T01:41:47.758Z,66.35
2019-04-25T01:42:47.959Z,66.25
2019-04-25T01:43:49.054Z,66.38
2019-04-25T01:44:48.038Z,67.47
2019-04-25T01:45:48.232Z,66.75
2019-04-25T01:46:48.252Z,66.89
2019-04-25T01:47:49.020Z,67.10
2019-04-25T01:48:48.526Z,67.19
2019-04-25T01:49:48.766Z,67.10
2019-04-25T01:50:49.289Z,66.89
2019-04-25T01:51:48.810Z,67.30
2019-04-25T01:52:48.881Z,67.30
2019-04-25T01:53:48.978Z,67.91
2019-04-25T01:54:49.167Z,67.91
2019-04-25T01:55:55.865Z,67.71
2019-04-25T01:56:49.341Z,67.91
2019-04-25T01:57:47.587Z,67.60
2019-04-25T01:58:47.576Z,68.12
2019-04-25T01:59:47.574Z,67.40
2019-04-25T02:00:47.555Z,66.99
2019-04-25T02:01:47.564Z,67.19
2019-04-25T02:02:47.535Z,68.01
2019-04-25T02:03:47.524Z,67.81
2019-04-25T02:04:47.513Z,68.05
2019-04-25T02:05:47.504Z,67.84
2019-04-25T02:06:47.501Z,67.84
2019-04-25T02:07:47.480Z,67.74
2019-04-25T02:08:47.475Z,68.55
2019-04-25T02:09:47.467Z,68.18
2019-04-25T02:10:47.451Z,68.05
2019-04-25T02:11:47.443Z,68.15
2019-04-25T02:12:47.429Z,68.28
2019-04-25T02:13:47.418Z,68.59
2019-04-25T02:14:47.544Z,68.49
2019-04-25T02:15:47.496Z,68.69
2019-04-25T02:16:47.396Z,68.38
2019-04-25T02:17:47.378Z,68.28
2019-04-25T02:18:47.368Z,68.38
2019-04-25T02:19:47.357Z,68.69
2019-04-25T02:20:47.345Z,68.69
2019-04-25T02:21:47.343Z,69.10
2019-04-25T02:22:47.324Z,68.90
2019-04-25T02:23:47.312Z,68.49
2019-04-25T02:24:47.314Z,68.49
2019-04-25T02:25:47.292Z,68.28
2019-04-25T02:26:47.291Z,68.79
2019-04-25T02:27:47.271Z,68.69
2019-04-25T02:28:47.261Z,69.00
2019-04-25T02:29:47.251Z,68.79
2019-04-25T02:30:47.247Z,69.00
2019-04-25T02:31:47.242Z,69.00
2019-04-25T02:32:47.225Z,68.83
2019-04-25T02:33:47.210Z,68.73
2019-04-25T02:34:47.200Z,69.34
2019-04-25T02:35:47.187Z,69.44
2019-04-25T02:36:47.291Z,68.52
2019-04-25T02:37:47.166Z,68.83
2019-04-25T02:38:47.166Z,68.73
2019-04-25T02:39:47.145Z,69.24
2019-04-25T02:40:47.142Z,69.34
2019-04-25T02:41:47.135Z,69.44
2019-04-25T02:42:47.113Z,69.85
2019-04-25T02:43:47.102Z,70.26
2019-04-25T02:44:47.109Z,70.19
2019-04-25T02:45:47.091Z,69.89
2019-04-25T02:46:47.084Z,70.26
2019-04-25T02:47:47.069Z,70.26
2019-04-25T02:48:47.050Z,70.50
2019-04-25T02:49:47.038Z,70.19
2019-04-25T02:50:47.030Z,70.40
2019-04-25T02:51:47.052Z,70.19
2019-04-25T02:52:47.013Z,70.60
2019-04-25T02:53:47.001Z,70.50
2019-04-25T02:54:46.985Z,70.50
2019-04-25T02:55:46.976Z,70.91
2019-04-25T02:56:46.965Z,71.01
2019-04-25T02:57:46.962Z,70.60
2019-04-25T02:58:46.942Z,70.60
2019-04-25T02:59:46.935Z,70.60
2019-04-25T03:00:57.303Z,70.50
2019-04-25T03:01:47.914Z,70.50
2019-04-25T03:02:46.905Z,70.40
2019-04-25T03:03:46.893Z,70.70
2019-04-25T03:04:46.882Z,70.60
2019-04-25T03:05:47.746Z,70.60
2019-04-25T03:06:46.862Z,70.50
2019-04-25T03:07:46.860Z,70.81
2019-04-25T03:08:46.838Z,71.11
2019-04-25T03:09:46.830Z,71.11
2019-04-25T03:10:46.832Z,71.32
2019-04-25T03:11:47.748Z,71.11
2019-04-25T03:12:46.819Z,71.22
2019-04-25T03:13:46.822Z,70.81
2019-04-25T03:14:46.779Z,71.15
2019-04-25T03:15:46.767Z,71.25
2019-04-25T03:16:46.753Z,71.25
2019-04-25T03:17:46.744Z,71.11
2019-04-25T03:18:46.735Z,71.15
2019-04-25T03:19:46.730Z,71.25
2019-04-25T03:20:46.762Z,71.15
2019-04-25T03:21:46.699Z,70.84
2019-04-25T03:22:46.692Z,70.73
2019-04-25T03:23:46.686Z,70.73
2019-04-25T03:24:46.669Z,70.53
2019-04-25T03:25:46.685Z,70.84
2019-04-25T03:26:46.647Z,71.04
2019-04-25T03:27:46.666Z,71.04
2019-04-25T03:28:46.626Z,71.15
2019-04-25T03:29:46.614Z,71.04
2019-04-25T03:30:46.606Z,71.15
2019-04-25T03:31:46.595Z,71.04
2019-04-25T03:32:46.594Z,70.84
2019-04-25T03:33:46.577Z,71.15
2019-04-25T03:34:46.564Z,71.15
2019-04-25T03:35:46.552Z,71.04
2019-04-25T03:36:46.541Z,70.84
2019-04-25T03:37:46.701Z,70.84
2019-04-25T03:38:46.521Z,70.53
2019-04-25T03:39:46.510Z,70.64
2019-04-25T03:40:46.500Z,71.25
2019-04-25T03:41:46.488Z,70.64
2019-04-25T03:42:46.489Z,71.35
2019-04-25T03:43:46.491Z,71.66
2019-04-25T03:44:46.458Z,70.97
2019-04-25T03:45:46.450Z,71.15
2019-04-25T03:46:46.438Z,70.64
2019-04-25T03:47:46.424Z,71.45
2019-04-25T03:48:46.417Z,71.15
2019-04-25T03:49:46.407Z,70.73
2019-04-25T03:50:46.394Z,71.04
2019-04-25T03:51:46.384Z,71.04
2019-04-25T03:52:46.373Z,70.73
2019-04-25T03:53:46.367Z,71.15
2019-04-25T03:54:46.350Z,71.04
2019-04-25T03:55:46.342Z,71.15
2019-04-25T03:56:53.444Z,71.15
2019-04-25T03:57:47.318Z,70.64
2019-04-25T03:58:46.317Z,71.04
2019-04-25T03:59:46.297Z,70.73
2019-04-25T04:00:46.286Z,70.97
2019-04-25T04:01:46.282Z,71.18
2019-04-25T04:02:46.267Z,71.15
2019-04-25T04:03:46.279Z,71.25
2019-04-25T04:04:46.244Z,71.18
2019-04-25T04:05:46.233Z,71.04
2019-04-25T04:06:46.222Z,70.67
2019-04-25T04:07:46.217Z,70.77
2019-04-25T04:08:46.225Z,70.87
2019-04-25T04:09:46.191Z,71.08
2019-04-25T04:10:46.181Z,71.28
2019-04-25T04:11:46.176Z,71.28
2019-04-25T04:12:46.161Z,71.59
2019-04-25T04:13:46.167Z,72.03
2019-04-25T04:14:46.142Z,71.83
2019-04-25T04:15:46.128Z,72.44
2019-04-25T04:16:46.126Z,72.00
2019-04-25T04:17:46.109Z,72.24
2019-04-25T04:18:46.100Z,72.24
2019-04-25T04:19:46.097Z,72.24
2019-04-25T04:20:46.077Z,71.90
2019-04-25T04:21:46.066Z,72.24
2019-04-25T04:22:46.054Z,71.83
2019-04-25T04:23:46.043Z,71.52
2019-04-25T04:24:46.042Z,71.62
2019-04-25T04:25:46.027Z,71.90
2019-04-25T04:26:46.020Z,72.44
2019-04-25T04:27:46.009Z,72.75
2019-04-25T04:28:45.992Z,72.24
2019-04-25T04:29:45.998Z,72.55
2019-04-25T04:30:45.988Z,72.75
2019-04-25T04:31:45.963Z,72.44
2019-04-25T04:32:45.954Z,72.55
2019-04-25T04:33:45.936Z,71.83
2019-04-25T04:34:45.933Z,72.34
2019-04-25T04:35:45.918Z,72.96
2019-04-25T04:36:46.660Z,72.14
2019-04-25T04:37:45.896Z,72.85
2019-04-25T04:38:45.899Z,72.75
2019-04-25T04:39:45.891Z,73.16
2019-04-25T04:40:45.874Z,72.75
2019-04-25T04:41:45.851Z,72.44
2019-04-25T04:42:45.841Z,72.24
2019-04-25T04:43:45.841Z,72.51
2019-04-25T04:44:45.829Z,72.85
2019-04-25T04:45:45.859Z,72.55
2019-04-25T04:46:45.800Z,72.55
2019-04-25T04:47:45.786Z,72.41
2019-04-25T04:48:45.779Z,72.44
2019-04-25T04:49:45.778Z,72.75
2019-04-25T04:50:45.778Z,72.96
2019-04-25T04:51:45.747Z,72.92
2019-04-25T04:52:45.736Z,72.72
2019-04-25T04:53:45.725Z,72.20
2019-04-25T04:54:45.736Z,71.80
2019-04-25T04:55:45.702Z,72.00
2019-04-25T04:56:45.690Z,72.31
2019-04-25T04:57:45.685Z,72.51
2019-04-25T04:58:45.669Z,72.20
2019-04-25T04:59:45.658Z,71.80
2019-04-25T05:00:45.650Z,71.80
2019-04-25T05:01:45.674Z,71.39
2019-04-25T05:02:45.637Z,71.90
2019-04-25T05:03:45.614Z,71.80
2019-04-25T05:04:45.603Z,72.51
2019-04-25T05:05:45.597Z,72.10
2019-04-25T05:06:45.582Z,71.59
2019-04-25T05:07:45.579Z,71.08
2019-04-25T05:08:45.565Z,72.20
2019-04-25T05:09:45.552Z,71.80
2019-04-25T05:10:45.554Z,71.66
2019-04-25T05:11:45.555Z,72.51
2019-04-25T05:12:45.518Z,71.66
2019-04-25T05:13:45.510Z,71.35
2019-04-25T05:14:45.497Z,70.64
2019-04-25T05:15:45.560Z,71.04
2019-04-25T05:16:45.479Z,70.84
2019-04-25T05:17:45.466Z,71.66
2019-04-25T05:18:45.456Z,71.15
2019-04-25T05:19:45.444Z,71.35
2019-04-25T05:20:45.443Z,71.76
2019-04-25T05:21:45.687Z,71.35
2019-04-25T05:22:45.413Z,71.66
2019-04-25T05:23:45.405Z,71.45
2019-04-25T05:24:45.393Z,71.97
2019-04-25T05:25:45.393Z,72.14
2019-04-25T05:26:45.378Z,71.25
2019-04-25T05:27:59.661Z,71.15
2019-04-25T05:28:46.349Z,71.15
2019-04-25T05:29:45.344Z,71.22
2019-04-25T05:30:45.338Z,71.11
2019-04-25T05:31:45.600Z,70.81
2019-04-25T05:32:45.423Z,71.18
2019-04-25T05:33:45.299Z,72.31
2019-04-25T05:34:46.183Z,70.26
2019-04-25T05:35:45.287Z,70.36
2019-04-25T05:36:45.265Z,70.77
2019-04-25T05:37:45.261Z,70.87
2019-04-25T05:38:45.314Z,70.98
2019-04-25T05:39:45.234Z,70.98
2019-04-25T05:40:45.244Z,70.36
2019-04-25T05:41:45.213Z,70.06
2019-04-25T05:42:45.201Z,70.06
2019-04-25T05:43:45.192Z,70.03
2019-04-25T05:44:45.203Z,70.03
2019-04-25T05:45:45.172Z,70.53
2019-04-25T05:46:45.351Z,70.53
2019-04-25T05:47:45.149Z,69.92
2019-04-25T05:48:45.147Z,68.49
2019-04-25T05:49:45.128Z,69.00
2019-04-25T05:50:45.121Z,68.59
2019-04-25T05:51:45.131Z,68.46
2019-04-25T05:52:46.003Z,68.76
2019-04-25T05:53:47.130Z,68.76
2019-04-25T05:54:45.080Z,68.46
2019-04-25T05:55:45.065Z,68.55
2019-04-25T05:56:45.064Z,69.14
2019-04-25T05:57:49.875Z,68.52
2019-04-25T05:58:46.028Z,68.42
2019-04-25T05:59:45.020Z,68.42
2019-04-25T06:00:45.012Z,68.32
2019-04-25T06:01:45.008Z,68.73
2019-04-25T06:02:46.168Z,68.70
2019-04-25T06:03:44.976Z,69.11
2019-04-25T06:04:44.964Z,68.90
2019-04-25T06:05:44.952Z,68.80
2019-04-25T06:06:44.944Z,68.46
2019-04-25T06:07:44.938Z,68.46
2019-04-25T06:08:44.920Z,68.70
2019-04-25T06:09:44.910Z,68.49
2019-04-25T06:10:45.251Z,68.29
2019-04-25T06:11:44.898Z,68.46
2019-04-25T06:12:44.876Z,68.87
2019-04-25T06:13:44.870Z,68.87
2019-04-25T06:14:44.860Z,68.36
2019-04-25T06:15:44.850Z,68.26
2019-04-25T06:16:44.843Z,67.82
2019-04-25T06:17:44.820Z,68.12
2019-04-25T06:18:44.811Z,68.53
2019-04-25T06:19:44.800Z,67.71
2019-04-25T06:20:44.868Z,67.61
2019-04-25T06:21:44.801Z,66.90
2019-04-25T06:22:44.765Z,67.27
2019-04-25T06:23:46.088Z,67.51
2019-04-25T06:24:44.743Z,67.79
2019-04-25T06:25:44.737Z,67.68
2019-04-25T06:26:44.725Z,66.86
2019-04-25T06:27:56.422Z,67.89
2019-04-25T06:28:53.688Z,67.48
2019-04-25T06:29:57.309Z,67.85
2019-04-25T06:30:45.680Z,66.74
2019-04-25T06:31:44.666Z,66.22
2019-04-25T06:32:44.660Z,66.12
2019-04-25T06:33:44.698Z,66.53
2019-04-25T06:34:44.651Z,66.12
2019-04-25T06:35:44.625Z,65.31
2019-04-25T06:36:44.611Z,65.41
2019-04-25T06:37:44.604Z,66.19
2019-04-25T06:38:44.588Z,66.91
2019-04-25T06:39:44.581Z,66.50
2019-04-25T06:40:44.572Z,64.97
2019-04-25T06:41:44.559Z,65.37
2019-04-25T06:42:46.743Z,64.97
2019-04-25T06:43:44.544Z,64.12
2019-04-25T06:44:44.527Z,65.14
2019-04-25T06:45:44.514Z,64.12
2019-04-25T06:46:44.511Z,63.82
2019-04-25T06:47:44.502Z,64.02
2019-04-25T06:48:45.516Z,64.84
2019-04-25T06:49:44.557Z,64.40
2019-04-25T06:50:44.461Z,63.92
2019-04-25T06:51:46.074Z,64.20
2019-04-25T06:52:44.445Z,63.38
2019-04-25T06:53:44.431Z,63.89
2019-04-25T06:54:44.415Z,64.50
2019-04-25T06:55:45.000Z,64.81
2019-04-25T06:56:44.457Z,62.74
2019-04-25T06:57:44.385Z,62.33
2019-04-25T06:58:44.373Z,63.86
2019-04-25T06:59:44.360Z,63.35
2019-04-25T07:00:57.532Z,63.04
2019-04-25T07:01:45.338Z,64.17
2019-04-25T07:02:44.336Z,62.10
2019-04-25T07:03:44.330Z,61.00
2019-04-25T07:04:45.654Z,61.61
2019-04-25T07:05:44.297Z,62.10
2019-04-25T07:06:45.454Z,62.51
2019-04-25T07:07:45.459Z,63.32
2019-04-25T07:08:44.768Z,62.71
2019-04-25T07:09:44.333Z,62.10
2019-04-25T07:10:44.702Z,61.76
2019-04-25T07:11:44.276Z,61.97
2019-04-25T07:12:44.419Z,61.87
2019-04-25T07:13:44.218Z,62.68
2019-04-25T07:14:44.199Z,61.53
2019-04-25T07:15:44.187Z,61.53
2019-04-25T07:16:44.176Z,61.83
2019-04-25T07:17:45.776Z,60.72
2019-04-25T07:18:44.171Z,60.72
2019-04-25T07:19:44.197Z,61.63
2019-04-25T07:20:45.372Z,61.53
2019-04-25T07:21:44.424Z,61.53
2019-04-25T07:22:44.123Z,61.51
2019-04-25T07:23:46.198Z,58.56
2019-04-25T07:24:44.093Z,59.16
2019-04-25T07:25:44.142Z,59.06
2019-04-25T07:26:44.298Z,58.56
2019-04-25T07:27:44.716Z,58.73
2019-04-25T07:28:44.094Z,58.42
2019-04-25T07:29:44.037Z,58.33
2019-04-25T07:30:49.922Z,58.20
2019-04-25T07:31:45.013Z,56.16
2019-04-25T07:32:44.049Z,56.54
2019-04-25T07:33:44.000Z,56.31
2019-04-25T07:34:43.983Z,56.29
2019-04-25T07:35:43.976Z,55.45
2019-04-25T07:36:45.549Z,52.39
2019-04-25T07:37:44.201Z,51.35
2019-04-25T07:38:43.949Z,50.11
2019-04-25T07:39:44.253Z,50.77
2019-04-25T07:40:43.920Z,49.33
2019-04-25T07:41:44.204Z,48.90
2019-04-25T07:42:43.996Z,48.68
2019-04-25T07:43:43.933Z,48.96
2019-04-25T07:44:52.249Z,47.42
2019-04-25T07:45:44.864Z,46.29
2019-04-25T07:46:43.853Z,44.95
2019-04-25T07:47:44.191Z,45.64
2019-04-25T07:48:43.962Z,44.83
2019-04-25T07:49:43.824Z,45.09
2019-04-25T07:50:43.937Z,44.79
2019-04-25T07:51:45.351Z,42.35
2019-04-25T07:52:44.337Z,41.13
2019-04-25T07:53:43.820Z,41.41
2019-04-25T07:54:44.054Z,42.40
2019-04-25T07:55:43.761Z,40.67
2019-04-25T07:56:43.861Z,40.67
2019-04-25T07:57:44.273Z,41.25
2019-04-25T07:58:50.469Z,39.53
2019-04-25T07:59:44.718Z,38.51
2019-04-25T08:00:44.013Z,38.09
2019-04-25T08:01:43.790Z,37.16
2019-04-25T08:02:43.688Z,36.94
2019-04-25T08:03:43.997Z,37.35
2019-04-25T08:04:44.310Z,36.63
2019-04-25T08:05:44.055Z,36.40
2019-04-25T08:06:44.497Z,37.40
2019-04-25T08:07:43.775Z,36.28
2019-04-25T08:08:43.891Z,35.46
2019-04-25T08:09:44.308Z,35.24
2019-04-25T08:10:45.309Z,35.03
2019-04-25T08:11:43.588Z,34.83
2019-04-25T08:12:44.428Z,34.21
2019-04-25T08:13:43.709Z,34.99
2019-04-25T08:14:43.720Z,32.90
2019-04-25T08:15:43.769Z,33.60
2019-04-25T08:16:44.268Z,33.47
2019-04-25T08:17:44.132Z,32.87
2019-04-25T08:18:43.526Z,32.35
2019-04-25T08:19:44.273Z,32.84
2019-04-25T08:20:43.575Z,32.34
2019-04-25T08:21:44.958Z,32.44
2019-04-25T08:22:55.847Z,31.53
2019-04-25T08:23:44.469Z,30.93
2019-04-25T08:24:43.989Z,31.71
2019-04-25T08:25:43.442Z,32.51
2019-04-25T08:26:43.723Z,32.62
2019-04-25T08:27:44.969Z,31.73
2019-04-25T08:28:54.932Z,33.15
2019-04-25T08:29:45.545Z,33.25
2019-04-25T08:30:43.707Z,32.68
2019-04-25T08:31:44.017Z,33.40
2019-04-25T08:32:44.073Z,32.62
2019-04-25T08:33:46.368Z,33.23
2019-04-25T08:34:44.728Z,33.16
2019-04-25T08:36:03.011Z,33.08
2019-04-25T08:36:45.657Z,34.09
2019-04-25T08:37:44.070Z,36.29
2019-04-25T08:38:44.727Z,35.91
2019-04-25T08:39:44.920Z,36.61
2019-04-25T08:40:44.093Z,36.43
2019-04-25T08:41:45.375Z,36.83
2019-04-25T08:42:44.206Z,36.31
2019-04-25T08:43:45.365Z,36.49
2019-04-25T08:44:44.833Z,36.26
2019-04-25T08:45:44.245Z,34.56
2019-04-25T08:46:44.244Z,36.76
2019-04-25T08:47:43.918Z,35.66
2019-04-25T08:48:44.399Z,33.63
2019-04-25T08:49:45.744Z,33.80
2019-04-25T08:50:44.491Z,32.97
2019-04-25T08:51:44.499Z,32.84
2019-04-25T08:52:44.310Z,32.41
2019-04-25T08:53:44.947Z,32.09
2019-04-25T08:54:47.166Z,31.37
2019-04-25T08:55:44.346Z,31.75
2019-04-25T08:56:43.984Z,31.82
2019-04-25T08:57:44.042Z,30.52
2019-04-25T08:58:43.677Z,30.70
2019-04-25T08:59:49.150Z,29.79
2019-04-25T09:00:44.690Z,28.20
2019-04-25T09:01:45.097Z,27.79
2019-04-25T09:02:44.730Z,27.67
2019-04-25T09:03:44.356Z,27.66
2019-04-25T09:04:44.588Z,26.17
2019-04-25T09:05:45.972Z,26.45
2019-04-25T09:06:44.278Z,26.75
2019-04-25T09:07:44.470Z,26.82
2019-04-25T09:08:44.009Z,26.53
2019-04-25T09:09:43.981Z,25.52
2019-04-25T09:10:43.691Z,25.82
2019-04-25T09:11:44.648Z,25.32
2019-04-25T09:12:44.268Z,25.51
2019-04-25T09:13:43.867Z,24.71
2019-04-25T09:14:44.803Z,25.40
2019-04-25T09:15:45.500Z,25.21
2019-04-25T09:16:44.221Z,25.32
2019-04-25T09:17:44.476Z,25.33
2019-04-25T09:18:44.323Z,25.63
2019-04-25T09:19:44.446Z,26.43
2019-04-25T09:20:43.739Z,27.04
2019-04-25T09:21:48.114Z,26.96
2019-04-25T09:22:44.565Z,28.17
2019-04-25T09:23:43.742Z,28.47
2019-04-25T09:24:44.404Z,29.57
2019-04-25T09:25:44.476Z,29.78
2019-04-25T09:26:44.224Z,30.88
2019-04-25T09:27:43.761Z,30.58
2019-04-25T09:28:45.281Z,30.40
2019-04-25T09:29:43.474Z,29.92
2019-04-25T09:30:44.475Z,29.82
2019-04-25T09:31:44.832Z,30.43
2019-04-25T09:32:44.411Z,31.52
2019-04-25T09:33:45.361Z,31.82
2019-04-25T09:34:43.714Z,32.23
2019-04-25T09:35:44.837Z,32.71
2019-04-25T09:36:43.966Z,31.42
2019-04-25T09:37:44.799Z,31.72
2019-04-25T09:38:45.142Z,30.41
2019-04-25T09:39:44.354Z,29.81
2019-04-25T09:40:44.244Z,29.90
2019-04-25T09:41:44.133Z,28.69
2019-04-25T09:42:44.756Z,29.27
2019-04-25T09:43:43.695Z,28.35
2019-04-25T09:44:44.168Z,27.55
2019-04-25T09:45:43.913Z,28.12
2019-04-25T09:46:44.120Z,26.73
2019-04-25T09:47:43.779Z,28.79
2019-04-25T09:48:44.297Z,27.79
2019-04-25T09:49:43.803Z,26.59
2019-04-25T09:50:44.181Z,26.58
2019-04-25T09:51:44.234Z,27.37
2019-04-25T09:52:44.351Z,26.87
2019-04-25T09:53:45.978Z,25.87
2019-04-25T09:54:44.127Z,25.18
2019-04-25T09:55:44.083Z,26.64
2019-04-25T09:56:43.414Z,24.47
2019-04-25T09:57:43.362Z,24.26
2019-04-25T09:58:44.056Z,23.85
2019-04-25T09:59:43.986Z,24.53
2019-04-25T10:00:43.605Z,23.74
2019-04-25T10:01:43.983Z,23.06
2019-04-25T10:02:42.457Z,23.06
2019-04-25T10:03:43.569Z,25.63
2019-04-25T10:04:43.769Z,24.77
2019-04-25T10:05:42.693Z,24.70
2019-04-25T10:06:44.370Z,24.43
2019-04-25T10:07:43.236Z,26.72
2019-04-25T10:08:43.637Z,26.55
2019-04-25T10:09:44.646Z,27.47
2019-04-25T10:10:42.518Z,29.06
2019-04-25T10:11:44.004Z,28.18
2019-04-25T10:12:44.117Z,28.97
2019-04-25T10:13:43.794Z,29.46
2019-04-25T10:14:44.698Z,28.24
2019-04-25T10:15:44.101Z,27.13
2019-04-25T10:16:44.289Z,26.89
2019-04-25T10:17:43.916Z,25.78
2019-04-25T10:18:43.695Z,24.87
2019-04-25T10:19:42.288Z,22.98
2019-04-25T10:20:43.478Z,23.25
2019-04-25T10:21:42.269Z,23.33
2019-04-25T10:22:42.839Z,22.72
2019-04-25T10:23:44.079Z,21.63
2019-04-25T10:24:42.677Z,20.74
2019-04-25T10:25:43.852Z,20.62
2019-04-25T10:26:43.810Z,20.32
2019-04-25T10:27:46.457Z,20.90
2019-04-25T10:28:44.064Z,20.21
2019-04-25T10:29:48.195Z,20.69
2019-04-25T10:30:43.180Z,20.50
2019-04-25T10:31:43.986Z,20.59
2019-04-25T10:32:44.026Z,19.70
2019-04-25T10:33:45.194Z,19.02
2019-04-25T10:34:43.972Z,19.79
2019-04-25T10:35:50.814Z,19.01
2019-04-25T10:36:45.295Z,19.40
2019-04-25T10:37:43.229Z,18.73
2019-04-25T10:38:42.387Z,20.40
2019-04-25T10:39:43.809Z,19.62
2019-04-25T10:40:42.605Z,19.82
2019-04-25T10:41:44.744Z,20.02
2019-04-25T10:42:44.184Z,19.24
2019-04-25T10:43:42.054Z,19.55
2019-04-25T10:44:42.044Z,20.83
2019-04-25T10:45:42.359Z,20.06
2019-04-25T10:46:42.036Z,20.17
2019-04-25T10:47:43.932Z,21.36
2019-04-25T10:48:42.005Z,20.28
2019-04-25T10:49:42.594Z,20.68
2019-04-25T10:50:41.992Z,21.66
2019-04-25T10:51:43.994Z,22.06
2019-04-25T10:52:41.967Z,21.19
2019-04-25T10:53:41.959Z,22.17
2019-04-25T10:54:41.973Z,22.77
2019-04-25T10:55:42.839Z,22.67
2019-04-25T10:56:41.941Z,23.08
2019-04-25T10:57:42.068Z,22.20
2019-04-25T10:58:41.904Z,22.50
2019-04-25T10:59:54.548Z,21.12
2019-04-25T11:00:44.849Z,22.61
2019-04-25T11:01:43.103Z,21.94
2019-04-25T11:02:42.387Z,21.84
2019-04-25T11:03:42.656Z,22.45
2019-04-25T11:04:41.973Z,23.64
2019-04-25T11:05:42.768Z,24.53
2019-04-25T11:06:41.975Z,23.44
2019-04-25T11:07:41.985Z,22.86
2019-04-25T11:08:41.816Z,22.96
2019-04-25T11:09:44.958Z,22.78
2019-04-25T11:10:43.871Z,23.58
2019-04-25T11:11:41.784Z,24.38
2019-04-25T11:12:42.837Z,24.97
2019-04-25T11:13:41.758Z,24.77
2019-04-25T11:14:42.232Z,25.66
2019-04-25T11:15:41.988Z,27.15
2019-04-25T11:16:42.845Z,27.04
2019-04-25T11:17:42.603Z,24.77
2019-04-25T11:18:41.830Z,25.46
2019-04-25T11:19:44.028Z,26.94
2019-04-25T11:20:42.680Z,24.87
2019-04-25T11:21:42.699Z,26.75
2019-04-25T11:22:42.379Z,25.76
2019-04-25T11:23:44.263Z,24.37
2019-04-25T11:24:42.361Z,24.38
2019-04-25T11:25:41.626Z,26.65
2019-04-25T11:26:41.634Z,24.67
2019-04-25T11:27:43.746Z,26.24
2019-04-25T11:28:42.661Z,25.37
2019-04-25T11:29:41.670Z,26.83
2019-04-25T11:30:43.578Z,24.28
2019-04-25T11:31:41.562Z,23.79
2019-04-25T11:32:42.162Z,24.97
2019-04-25T11:33:41.543Z,23.69
2019-04-25T11:34:43.378Z,25.07
2019-04-25T11:35:41.519Z,24.77
2019-04-25T11:36:41.509Z,26.25
2019-04-25T11:37:43.095Z,24.48
2019-04-25T11:38:41.487Z,25.65
2019-04-25T11:39:42.609Z,25.66
2019-04-25T11:40:43.621Z,24.97
2019-04-25T11:41:43.271Z,24.67
2019-04-25T11:42:41.875Z,25.96
2019-04-25T11:43:43.520Z,24.67
2019-04-25T11:44:42.816Z,27.24
2019-04-25T11:45:41.412Z,27.04
2019-04-25T11:46:41.402Z,26.55
2019-04-25T11:47:41.408Z,25.46
2019-04-25T11:48:41.406Z,25.77
2019-04-25T11:49:42.279Z,25.59
2019-04-25T11:50:41.362Z,26.28
2019-04-25T11:51:41.834Z,27.77
2019-04-25T11:52:41.351Z,25.70
2019-04-25T11:53:41.328Z,26.59
2019-04-25T11:54:41.332Z,26.67
2019-04-25T11:55:41.308Z,25.39
2019-04-25T11:56:42.668Z,25.38
2019-04-25T11:57:44.130Z,24.08
2019-04-25T11:58:45.056Z,24.29
2019-04-25T11:59:41.997Z,23.40
2019-04-25T12:00:42.070Z,24.90
2019-04-25T12:01:42.518Z,25.78
2019-04-25T12:02:41.250Z,25.96
2019-04-25T12:03:41.226Z,26.84
2019-04-25T12:04:41.238Z,26.07
2019-04-25T12:05:41.205Z,26.46
2019-04-25T12:06:41.195Z,27.25
2019-04-25T12:07:41.218Z,26.48
2019-04-25T12:08:41.171Z,27.08
2019-04-25T12:09:41.161Z,27.59
2019-04-25T12:10:41.155Z,25.62
2019-04-25T12:11:41.172Z,27.42
2019-04-25T12:12:41.143Z,27.12
2019-04-25T12:13:41.134Z,27.22
2019-04-25T12:14:41.117Z,27.33
2019-04-25T12:15:41.102Z,26.75
2019-04-25T12:16:41.093Z,26.26
2019-04-25T12:17:41.105Z,26.55
2019-04-25T12:18:41.093Z,27.34
2019-04-25T12:19:41.062Z,28.23
2019-04-25T12:20:41.053Z,27.94
2019-04-25T12:21:41.042Z,27.14
2019-04-25T12:22:41.030Z,27.55
2019-04-25T12:23:41.026Z,27.53
2019-04-25T12:24:41.013Z,27.81
2019-04-25T12:25:41.001Z,27.02
2019-04-25T12:26:40.990Z,28.30
2019-04-25T12:27:40.982Z,28.78
2019-04-25T12:28:40.979Z,26.49
2019-04-25T12:29:40.965Z,23.99
2019-04-25T12:30:40.954Z,24.57
2019-04-25T12:31:40.942Z,25.05
2019-04-25T12:32:40.933Z,24.95
2019-04-25T12:33:40.931Z,23.27
2019-04-25T12:34:40.909Z,24.85
2019-04-25T12:35:40.902Z,22.28
2019-04-25T12:36:40.892Z,22.56
2019-04-25T12:37:40.878Z,23.17
2019-04-25T12:38:40.870Z,22.48
2019-04-25T12:39:40.862Z,22.96
2019-04-25T12:40:40.854Z,24.53
2019-04-25T12:41:40.836Z,23.24
2019-04-25T12:42:40.825Z,22.35
2019-04-25T12:43:40.829Z,23.62
2019-04-25T12:44:40.803Z,20.57
2019-04-25T12:45:40.792Z,22.64
2019-04-25T12:46:40.783Z,22.85
2019-04-25T12:47:40.847Z,22.08
2019-04-25T12:48:40.763Z,21.69
2019-04-25T12:49:40.760Z,24.35
2019-04-25T12:50:40.737Z,22.88
2019-04-25T12:51:40.728Z,22.69
2019-04-25T12:52:40.719Z,22.99